sensor_id;sensor_type;location;lat;lon;timestamp;P1;durP1;ratioP1;P2;durP2;ratioP2
78589;SDS011;67888;50.228;7.828;2023-04-03T00:03:28;8.68;;;2.85;;
78589;SDS011;67888;50.228;7.828;2023-04-03T00:08:29;10.13;;;2.77;;
78589;SDS011;67888;50.228;7.828;2023-04-03T00:13:31;7.47;;;2.50;;
78589;SDS011;67888;50.228;7.828;2023-04-03T00:18:32;8.27;;;2.83;;
78589;SDS011;67888;50.228;7.828;2023-04-03T00:23:33;6.63;;;2.77;;
78589;SDS011;67888;50.228;7.828;2023-04-03T00:28:33;6.70;;;2.57;;
78589;SDS011;67888;50.228;7.828;2023-04-03T00:33:34;7.55;;;2.50;;
78589;SDS011;67888;50.228;7.828;2023-04-03T00:38:34;5.53;;;2.50;;
78589;SDS011;67888;50.228;7.828;2023-04-03T00:43:35;7.70;;;3.00;;
78589;SDS011;67888;50.228;7.828;2023-04-03T00:53:40;8.00;;;3.30;;
78589;SDS011;67888;50.228;7.828;2023-04-03T00:58:51;6.23;;;2.50;;
78589;SDS011;67888;50.228;7.828;2023-04-03T01:03:58;7.65;;;2.47;;
78589;SDS011;67888;50.228;7.828;2023-04-03T01:09:00;7.72;;;2.80;;
78589;SDS011;67888;50.228;7.828;2023-04-03T01:14:01;6.83;;;2.50;;
78589;SDS011;67888;50.228;7.828;2023-04-03T01:19:02;6.80;;;3.08;;
78589;SDS011;67888;50.228;7.828;2023-04-03T01:24:06;6.70;;;2.97;;
78589;SDS011;67888;50.228;7.828;2023-04-03T01:29:10;6.88;;;2.58;;
78589;SDS011;67888;50.228;7.828;2023-04-03T01:34:11;7.18;;;2.70;;
78589;SDS011;67888;50.228;7.828;2023-04-03T01:39:12;6.73;;;2.97;;
78589;SDS011;67888;50.228;7.828;2023-04-03T01:44:12;7.00;;;2.60;;
78589;SDS011;67888;50.228;7.828;2023-04-03T01:49:13;6.95;;;2.80;;
78589;SDS011;67888;50.228;7.828;2023-04-03T01:54:13;7.10;;;2.83;;
78589;SDS011;67888;50.228;7.828;2023-04-03T01:59:14;7.73;;;3.10;;
78589;SDS011;67888;50.228;7.828;2023-04-03T02:04:17;6.85;;;2.97;;
78589;SDS011;67888;50.228;7.828;2023-04-03T02:09:17;7.43;;;2.90;;
78589;SDS011;67888;50.228;7.828;2023-04-03T02:14:17;7.93;;;3.33;;
78589;SDS011;67888;50.228;7.828;2023-04-03T02:19:18;10.40;;;3.13;;
78589;SDS011;67888;50.228;7.828;2023-04-03T02:24:18;9.47;;;3.00;;
78589;SDS011;67888;50.228;7.828;2023-04-03T02:29:19;7.70;;;2.60;;
78589;SDS011;67888;50.228;7.828;2023-04-03T02:34:20;8.32;;;2.90;;
78589;SDS011;67888;50.228;7.828;2023-04-03T02:39:20;6.10;;;2.43;;
78589;SDS011;67888;50.228;7.828;2023-04-03T02:44:21;8.07;;;3.40;;
78589;SDS011;67888;50.228;7.828;2023-04-03T02:49:23;8.32;;;3.10;;
78589;SDS011;67888;50.228;7.828;2023-04-03T02:54:25;7.82;;;2.97;;
78589;SDS011;67888;50.228;7.828;2023-04-03T02:59:28;7.13;;;2.77;;
78589;SDS011;67888;50.228;7.828;2023-04-03T03:04:29;7.05;;;3.05;;
78589;SDS011;67888;50.228;7.828;2023-04-03T03:09:29;9.27;;;3.33;;
78589;SDS011;67888;50.228;7.828;2023-04-03T03:14:30;13.53;;;3.50;;
78589;SDS011;67888;50.228;7.828;2023-04-03T03:19:30;8.73;;;2.90;;
78589;SDS011;67888;50.228;7.828;2023-04-03T03:24:31;7.00;;;3.10;;
78589;SDS011;67888;50.228;7.828;2023-04-03T03:29:31;7.43;;;2.87;;
78589;SDS011;67888;50.228;7.828;2023-04-03T03:34:31;7.50;;;3.37;;
78589;SDS011;67888;50.228;7.828;2023-04-03T03:39:32;7.07;;;2.90;;
78589;SDS011;67888;50.228;7.828;2023-04-03T03:44:32;6.50;;;2.70;;
78589;SDS011;67888;50.228;7.828;2023-04-03T03:49:33;7.53;;;2.20;;
78589;SDS011;67888;50.228;7.828;2023-04-03T03:54:33;6.27;;;2.20;;
78589;SDS011;67888;50.228;7.828;2023-04-03T03:59:33;5.40;;;1.90;;
78589;SDS011;67888;50.228;7.828;2023-04-03T04:04:34;6.57;;;2.03;;
78589;SDS011;67888;50.228;7.828;2023-04-03T04:09:34;6.67;;;2.07;;
78589;SDS011;67888;50.228;7.828;2023-04-03T04:14:35;5.03;;;1.93;;
78589;SDS011;67888;50.228;7.828;2023-04-03T04:19:35;7.20;;;1.83;;
78589;SDS011;67888;50.228;7.828;2023-04-03T04:24:35;5.53;;;1.63;;
78589;SDS011;67888;50.228;7.828;2023-04-03T04:29:36;4.50;;;1.77;;
78589;SDS011;67888;50.228;7.828;2023-04-03T04:34:37;5.57;;;1.98;;
78589;SDS011;67888;50.228;7.828;2023-04-03T04:39:37;7.20;;;1.90;;
78589;SDS011;67888;50.228;7.828;2023-04-03T04:44:38;4.40;;;1.40;;
78589;SDS011;67888;50.228;7.828;2023-04-03T04:49:39;9.20;;;1.57;;
78589;SDS011;67888;50.228;7.828;2023-04-03T04:54:39;4.67;;;1.77;;
78589;SDS011;67888;50.228;7.828;2023-04-03T04:59:40;5.65;;;1.58;;
78589;SDS011;67888;50.228;7.828;2023-04-03T05:04:40;5.10;;;1.30;;
78589;SDS011;67888;50.228;7.828;2023-04-03T05:09:41;6.60;;;1.40;;
78589;SDS011;67888;50.228;7.828;2023-04-03T05:14:42;5.13;;;1.50;;
78589;SDS011;67888;50.228;7.828;2023-04-03T05:19:42;5.70;;;1.80;;
78589;SDS011;67888;50.228;7.828;2023-04-03T05:24:43;5.17;;;1.50;;
78589;SDS011;67888;50.228;7.828;2023-04-03T05:29:43;6.23;;;1.53;;
78589;SDS011;67888;50.228;7.828;2023-04-03T05:34:43;6.32;;;1.77;;
78589;SDS011;67888;50.228;7.828;2023-04-03T05:39:44;5.87;;;1.60;;
78589;SDS011;67888;50.228;7.828;2023-04-03T05:44:45;7.57;;;1.50;;
78589;SDS011;67888;50.228;7.828;2023-04-03T05:49:47;7.37;;;1.90;;
78589;SDS011;67888;50.228;7.828;2023-04-03T05:54:47;7.13;;;1.90;;
78589;SDS011;67888;50.228;7.828;2023-04-03T05:59:48;5.53;;;1.80;;
78589;SDS011;67888;50.228;7.828;2023-04-03T06:04:49;5.85;;;1.77;;
78589;SDS011;67888;50.228;7.828;2023-04-03T06:09:50;5.60;;;1.40;;
78589;SDS011;67888;50.228;7.828;2023-04-03T06:14:51;6.07;;;1.50;;
78589;SDS011;67888;50.228;7.828;2023-04-03T06:19:52;5.57;;;1.60;;
78589;SDS011;67888;50.228;7.828;2023-04-03T06:24:52;8.15;;;2.28;;
78589;SDS011;67888;50.228;7.828;2023-04-03T06:29:53;4.80;;;1.63;;
78589;SDS011;67888;50.228;7.828;2023-04-03T06:34:53;8.37;;;2.20;;
78589;SDS011;67888;50.228;7.828;2023-04-03T06:39:54;6.33;;;1.80;;
78589;SDS011;67888;50.228;7.828;2023-04-03T06:44:55;7.47;;;1.90;;
78589;SDS011;67888;50.228;7.828;2023-04-03T06:49:55;4.70;;;1.60;;
78589;SDS011;67888;50.228;7.828;2023-04-03T06:54:56;8.13;;;1.97;;
78589;SDS011;67888;50.228;7.828;2023-04-03T06:59:59;10.48;;;2.30;;
78589;SDS011;67888;50.228;7.828;2023-04-03T07:04:59;6.27;;;1.90;;
78589;SDS011;67888;50.228;7.828;2023-04-03T07:10:00;6.90;;;1.90;;
78589;SDS011;67888;50.228;7.828;2023-04-03T07:15:00;6.20;;;2.00;;
78589;SDS011;67888;50.228;7.828;2023-04-03T07:20:02;9.85;;;1.88;;
78589;SDS011;67888;50.228;7.828;2023-04-03T07:25:04;8.43;;;2.23;;
78589;SDS011;67888;50.228;7.828;2023-04-03T07:30:07;7.05;;;2.47;;
78589;SDS011;67888;50.228;7.828;2023-04-03T07:35:09;6.45;;;1.92;;
78589;SDS011;67888;50.228;7.828;2023-04-03T07:40:10;8.13;;;2.03;;
78589;SDS011;67888;50.228;7.828;2023-04-03T07:45:10;6.05;;;1.90;;
78589;SDS011;67888;50.228;7.828;2023-04-03T07:50:11;7.47;;;1.60;;
78589;SDS011;67888;50.228;7.828;2023-04-03T07:55:12;7.57;;;1.97;;
78589;SDS011;67888;50.228;7.828;2023-04-03T08:00:12;6.80;;;2.10;;
78589;SDS011;67888;50.228;7.828;2023-04-03T08:05:14;7.17;;;1.70;;
78589;SDS011;67888;50.228;7.828;2023-04-03T08:10:15;7.17;;;1.93;;
78589;SDS011;67888;50.228;7.828;2023-04-03T08:15:15;7.32;;;1.77;;
78589;SDS011;67888;50.228;7.828;2023-04-03T08:20:16;6.57;;;1.60;;
78589;SDS011;67888;50.228;7.828;2023-04-03T08:25:17;6.25;;;1.95;;
78589;SDS011;67888;50.228;7.828;2023-04-03T08:30:18;7.70;;;1.80;;
78589;SDS011;67888;50.228;7.828;2023-04-03T08:35:18;9.77;;;2.30;;
78589;SDS011;67888;50.228;7.828;2023-04-03T08:40:20;6.03;;;1.92;;
78589;SDS011;67888;50.228;7.828;2023-04-03T08:45:30;7.73;;;2.07;;
78589;SDS011;67888;50.228;7.828;2023-04-03T08:50:41;8.60;;;2.50;;
78589;SDS011;67888;50.228;7.828;2023-04-03T08:55:46;7.57;;;2.33;;
78589;SDS011;67888;50.228;7.828;2023-04-03T09:01:05;7.73;;;2.20;;
78589;SDS011;67888;50.228;7.828;2023-04-03T09:06:29;5.50;;;1.88;;
78589;SDS011;67888;50.228;7.828;2023-04-03T09:16:59;8.80;;;2.03;;
78589;SDS011;67888;50.228;7.828;2023-04-03T09:22:25;7.10;;;2.17;;
78589;SDS011;67888;50.228;7.828;2023-04-03T09:27:25;6.78;;;2.30;;
78589;SDS011;67888;50.228;7.828;2023-04-03T09:32:30;9.10;;;1.80;;
78589;SDS011;67888;50.228;7.828;2023-04-03T09:42:40;8.93;;;2.53;;
78589;SDS011;67888;50.228;7.828;2023-04-03T09:47:42;7.07;;;2.00;;
78589;SDS011;67888;50.228;7.828;2023-04-03T09:52:48;7.90;;;2.43;;
78589;SDS011;67888;50.228;7.828;2023-04-03T09:57:53;7.15;;;2.00;;
78589;SDS011;67888;50.228;7.828;2023-04-03T10:02:55;4.15;;;1.77;;
78589;SDS011;67888;50.228;7.828;2023-04-03T10:08:38;6.90;;;1.70;;
78589;SDS011;67888;50.228;7.828;2023-04-03T10:13:23;5.83;;;2.30;;
78589;SDS011;67888;50.228;7.828;2023-04-03T10:18:27;7.13;;;2.15;;
78589;SDS011;67888;50.228;7.828;2023-04-03T10:34:33;7.80;;;2.28;;
78589;SDS011;67888;50.228;7.828;2023-04-03T10:39:44;5.93;;;1.92;;
78589;SDS011;67888;50.228;7.828;2023-04-03T10:44:59;8.37;;;2.23;;
78589;SDS011;67888;50.228;7.828;2023-04-03T10:50:21;6.00;;;1.80;;
78589;SDS011;67888;50.228;7.828;2023-04-03T10:55:47;10.20;;;2.92;;
78589;SDS011;67888;50.228;7.828;2023-04-03T11:00:52;5.83;;;2.17;;
78589;SDS011;67888;50.228;7.828;2023-04-03T11:06:01;9.70;;;2.47;;
78589;SDS011;67888;50.228;7.828;2023-04-03T11:11:08;6.82;;;2.08;;
78589;SDS011;67888;50.228;7.828;2023-04-03T11:16:15;7.15;;;2.00;;
78589;SDS011;67888;50.228;7.828;2023-04-03T11:21:34;6.87;;;1.70;;
78589;SDS011;67888;50.228;7.828;2023-04-03T11:26:40;5.95;;;1.85;;
78589;SDS011;67888;50.228;7.828;2023-04-03T11:37:20;4.80;;;1.73;;
78589;SDS011;67888;50.228;7.828;2023-04-03T11:53:29;6.50;;;2.10;;
78589;SDS011;67888;50.228;7.828;2023-04-03T11:58:37;6.43;;;2.20;;
78589;SDS011;67888;50.228;7.828;2023-04-03T12:14:01;6.10;;;2.00;;
78589;SDS011;67888;50.228;7.828;2023-04-03T12:34:35;6.95;;;2.10;;
78589;SDS011;67888;50.228;7.828;2023-04-03T12:44:56;7.23;;;2.40;;
78589;SDS011;67888;50.228;7.828;2023-04-03T12:50:17;7.23;;;2.47;;
78589;SDS011;67888;50.228;7.828;2023-04-03T12:55:23;6.60;;;2.65;;
78589;SDS011;67888;50.228;7.828;2023-04-03T13:00:29;7.23;;;2.53;;
78589;SDS011;67888;50.228;7.828;2023-04-03T13:05:34;7.40;;;2.27;;
78589;SDS011;67888;50.228;7.828;2023-04-03T13:10:43;7.15;;;2.78;;
78589;SDS011;67888;50.228;7.828;2023-04-03T13:15:49;14.70;;;6.23;;
78589;SDS011;67888;50.228;7.828;2023-04-03T13:20:50;10.70;;;4.10;;
78589;SDS011;67888;50.228;7.828;2023-04-03T13:25:51;6.18;;;2.40;;
78589;SDS011;67888;50.228;7.828;2023-04-03T13:36:03;5.13;;;2.38;;
78589;SDS011;67888;50.228;7.828;2023-04-03T13:46:53;4.60;;;1.83;;
78589;SDS011;67888;50.228;7.828;2023-04-03T13:51:55;5.13;;;1.90;;
78589;SDS011;67888;50.228;7.828;2023-04-03T13:56:57;5.40;;;1.70;;
78589;SDS011;67888;50.228;7.828;2023-04-03T14:07:02;6.20;;;2.47;;
78589;SDS011;67888;50.228;7.828;2023-04-03T14:12:08;5.20;;;2.20;;
78589;SDS011;67888;50.228;7.828;2023-04-03T14:17:17;5.25;;;2.17;;
78589;SDS011;67888;50.228;7.828;2023-04-03T14:22:31;4.30;;;2.05;;
78589;SDS011;67888;50.228;7.828;2023-04-03T14:27:38;5.73;;;2.03;;
78589;SDS011;67888;50.228;7.828;2023-04-03T14:32:40;5.53;;;2.63;;
78589;SDS011;67888;50.228;7.828;2023-04-03T14:37:41;6.20;;;2.42;;
78589;SDS011;67888;50.228;7.828;2023-04-03T14:42:43;5.87;;;2.60;;
78589;SDS011;67888;50.228;7.828;2023-04-03T14:47:45;5.35;;;2.40;;
78589;SDS011;67888;50.228;7.828;2023-04-03T14:52:49;5.28;;;2.20;;
78589;SDS011;67888;50.228;7.828;2023-04-03T14:57:52;5.90;;;2.20;;
78589;SDS011;67888;50.228;7.828;2023-04-03T15:02:53;8.50;;;3.58;;
78589;SDS011;67888;50.228;7.828;2023-04-03T15:07:54;5.40;;;2.50;;
78589;SDS011;67888;50.228;7.828;2023-04-03T15:12:56;6.70;;;3.05;;
78589;SDS011;67888;50.228;7.828;2023-04-03T15:17:58;4.75;;;1.98;;
78589;SDS011;67888;50.228;7.828;2023-04-03T15:22:59;5.23;;;1.67;;
78589;SDS011;67888;50.228;7.828;2023-04-03T15:28:04;5.25;;;1.70;;
78589;SDS011;67888;50.228;7.828;2023-04-03T15:33:06;4.77;;;1.60;;
78589;SDS011;67888;50.228;7.828;2023-04-03T15:38:06;5.43;;;1.70;;
78589;SDS011;67888;50.228;7.828;2023-04-03T15:43:07;5.30;;;1.60;;
78589;SDS011;67888;50.228;7.828;2023-04-03T15:48:08;5.47;;;1.90;;
78589;SDS011;67888;50.228;7.828;2023-04-03T15:53:10;5.82;;;1.77;;
78589;SDS011;67888;50.228;7.828;2023-04-03T15:58:11;3.20;;;1.50;;
78589;SDS011;67888;50.228;7.828;2023-04-03T16:03:12;4.40;;;1.80;;
78589;SDS011;67888;50.228;7.828;2023-04-03T16:08:16;4.18;;;1.50;;
78589;SDS011;67888;50.228;7.828;2023-04-03T16:13:18;4.63;;;1.43;;
78589;SDS011;67888;50.228;7.828;2023-04-03T16:18:18;4.43;;;1.80;;
78589;SDS011;67888;50.228;7.828;2023-04-03T16:23:19;5.17;;;2.00;;
78589;SDS011;67888;50.228;7.828;2023-04-03T16:28:19;5.83;;;2.17;;
78589;SDS011;67888;50.228;7.828;2023-04-03T16:33:19;5.77;;;2.07;;
78589;SDS011;67888;50.228;7.828;2023-04-03T16:38:21;4.43;;;1.80;;
78589;SDS011;67888;50.228;7.828;2023-04-03T16:43:22;5.37;;;2.00;;
78589;SDS011;67888;50.228;7.828;2023-04-03T16:48:23;7.00;;;2.53;;
78589;SDS011;67888;50.228;7.828;2023-04-03T16:53:23;5.57;;;2.23;;
78589;SDS011;67888;50.228;7.828;2023-04-03T16:58:25;4.90;;;2.10;;
78589;SDS011;67888;50.228;7.828;2023-04-03T17:03:25;4.37;;;1.60;;
78589;SDS011;67888;50.228;7.828;2023-04-03T17:08:28;6.10;;;1.80;;
78589;SDS011;67888;50.228;7.828;2023-04-03T17:13:28;6.47;;;1.80;;
78589;SDS011;67888;50.228;7.828;2023-04-03T17:18:32;4.65;;;1.77;;
78589;SDS011;67888;50.228;7.828;2023-04-03T17:23:33;4.57;;;1.60;;
78589;SDS011;67888;50.228;7.828;2023-04-03T17:28:36;5.30;;;1.80;;
78589;SDS011;67888;50.228;7.828;2023-04-03T17:33:38;5.55;;;1.60;;
78589;SDS011;67888;50.228;7.828;2023-04-03T17:38:38;6.23;;;2.30;;
78589;SDS011;67888;50.228;7.828;2023-04-03T17:43:40;10.80;;;3.65;;
78589;SDS011;67888;50.228;7.828;2023-04-03T17:48:40;14.43;;;5.50;;
78589;SDS011;67888;50.228;7.828;2023-04-03T17:53:41;8.33;;;2.57;;
78589;SDS011;67888;50.228;7.828;2023-04-03T17:58:43;5.97;;;1.55;;
78589;SDS011;67888;50.228;7.828;2023-04-03T18:03:44;11.57;;;4.17;;
78589;SDS011;67888;50.228;7.828;2023-04-03T18:08:49;7.27;;;2.70;;
78589;SDS011;67888;50.228;7.828;2023-04-03T18:13:52;5.68;;;1.95;;
78589;SDS011;67888;50.228;7.828;2023-04-03T18:18:53;6.30;;;1.67;;
78589;SDS011;67888;50.228;7.828;2023-04-03T18:23:53;5.93;;;1.60;;
78589;SDS011;67888;50.228;7.828;2023-04-03T18:28:56;17.10;;;8.03;;
78589;SDS011;67888;50.228;7.828;2023-04-03T18:34:00;7.50;;;3.25;;
78589;SDS011;67888;50.228;7.828;2023-04-03T18:39:00;13.03;;;7.37;;
78589;SDS011;67888;50.228;7.828;2023-04-03T18:44:01;12.43;;;5.87;;
78589;SDS011;67888;50.228;7.828;2023-04-03T18:49:03;10.57;;;3.70;;
78589;SDS011;67888;50.228;7.828;2023-04-03T18:54:04;8.93;;;4.10;;
78589;SDS011;67888;50.228;7.828;2023-04-03T18:59:05;7.18;;;3.65;;
78589;SDS011;67888;50.228;7.828;2023-04-03T19:04:06;6.40;;;3.13;;
78589;SDS011;67888;50.228;7.828;2023-04-03T19:09:07;7.40;;;3.30;;
78589;SDS011;67888;50.228;7.828;2023-04-03T19:14:08;6.20;;;2.30;;
78589;SDS011;67888;50.228;7.828;2023-04-03T19:19:08;9.07;;;3.60;;
78589;SDS011;67888;50.228;7.828;2023-04-03T19:24:10;7.77;;;2.10;;
78589;SDS011;67888;50.228;7.828;2023-04-03T19:29:12;3.92;;;1.70;;
78589;SDS011;67888;50.228;7.828;2023-04-03T19:34:12;7.37;;;3.17;;
78589;SDS011;67888;50.228;7.828;2023-04-03T19:39:12;7.40;;;3.73;;
78589;SDS011;67888;50.228;7.828;2023-04-03T19:44:13;6.23;;;2.57;;
78589;SDS011;67888;50.228;7.828;2023-04-03T19:49:14;6.50;;;2.05;;
78589;SDS011;67888;50.228;7.828;2023-04-03T19:54:15;4.20;;;1.60;;
78589;SDS011;67888;50.228;7.828;2023-04-03T19:59:16;9.10;;;4.50;;
78589;SDS011;67888;50.228;7.828;2023-04-03T20:04:17;5.97;;;2.07;;
78589;SDS011;67888;50.228;7.828;2023-04-03T20:09:17;7.25;;;2.13;;
78589;SDS011;67888;50.228;7.828;2023-04-03T20:14:18;5.93;;;2.00;;
78589;SDS011;67888;50.228;7.828;2023-04-03T20:19:19;5.53;;;1.88;;
78589;SDS011;67888;50.228;7.828;2023-04-03T20:24:20;6.10;;;2.40;;
78589;SDS011;67888;50.228;7.828;2023-04-03T20:29:21;6.18;;;1.63;;
78589;SDS011;67888;50.228;7.828;2023-04-03T20:34:22;4.85;;;1.85;;
78589;SDS011;67888;50.228;7.828;2023-04-03T20:39:23;5.97;;;1.87;;
78589;SDS011;67888;50.228;7.828;2023-04-03T20:44:23;9.00;;;2.33;;
78589;SDS011;67888;50.228;7.828;2023-04-03T20:49:24;5.90;;;2.23;;
78589;SDS011;67888;50.228;7.828;2023-04-03T20:54:24;6.47;;;2.20;;
78589;SDS011;67888;50.228;7.828;2023-04-03T20:59:25;6.20;;;1.77;;
78589;SDS011;67888;50.228;7.828;2023-04-03T21:04:28;6.67;;;2.13;;
78589;SDS011;67888;50.228;7.828;2023-04-03T21:20:46;27.87;;;9.77;;
78589;SDS011;67888;50.228;7.828;2023-04-03T21:25:47;17.00;;;5.23;;
78589;SDS011;67888;50.228;7.828;2023-04-03T21:30:48;14.13;;;5.25;;
78589;SDS011;67888;50.228;7.828;2023-04-03T21:35:48;11.00;;;3.40;;
78589;SDS011;67888;50.228;7.828;2023-04-03T21:40:56;8.27;;;2.83;;
78589;SDS011;67888;50.228;7.828;2023-04-03T21:45:57;11.68;;;3.25;;
78589;SDS011;67888;50.228;7.828;2023-04-03T21:51:02;11.37;;;3.17;;
78589;SDS011;67888;50.228;7.828;2023-04-03T21:56:04;15.80;;;5.63;;
78589;SDS011;67888;50.228;7.828;2023-04-03T22:01:08;15.52;;;4.20;;
78589;SDS011;67888;50.228;7.828;2023-04-03T22:06:10;19.87;;;5.47;;
78589;SDS011;67888;50.228;7.828;2023-04-03T22:11:12;17.40;;;4.75;;
78589;SDS011;67888;50.228;7.828;2023-04-03T22:16:14;8.25;;;2.88;;
78589;SDS011;67888;50.228;7.828;2023-04-03T22:21:15;12.53;;;4.10;;
78589;SDS011;67888;50.228;7.828;2023-04-03T22:26:15;10.77;;;3.30;;
78589;SDS011;67888;50.228;7.828;2023-04-03T22:31:15;12.87;;;3.60;;
78589;SDS011;67888;50.228;7.828;2023-04-03T22:36:16;16.23;;;4.63;;
78589;SDS011;67888;50.228;7.828;2023-04-03T22:41:17;7.70;;;2.20;;
78589;SDS011;67888;50.228;7.828;2023-04-03T22:46:17;7.00;;;2.40;;
78589;SDS011;67888;50.228;7.828;2023-04-03T22:51:17;6.67;;;2.10;;
78589;SDS011;67888;50.228;7.828;2023-04-03T22:56:18;7.53;;;2.17;;
78589;SDS011;67888;50.228;7.828;2023-04-03T23:01:18;8.77;;;2.90;;
78589;SDS011;67888;50.228;7.828;2023-04-03T23:06:19;34.97;;;9.33;;
78589;SDS011;67888;50.228;7.828;2023-04-03T23:11:19;18.40;;;5.27;;
78589;SDS011;67888;50.228;7.828;2023-04-03T23:16:20;19.08;;;5.85;;
78589;SDS011;67888;50.228;7.828;2023-04-03T23:21:20;24.50;;;5.73;;
78589;SDS011;67888;50.228;7.828;2023-04-03T23:26:22;47.67;;;9.17;;
78589;SDS011;67888;50.228;7.828;2023-04-03T23:31:23;31.77;;;6.75;;
78589;SDS011;67888;50.228;7.828;2023-04-03T23:36:24;30.63;;;6.53;;
78589;SDS011;67888;50.228;7.828;2023-04-03T23:41:25;29.07;;;7.13;;
78589;SDS011;67888;50.228;7.828;2023-04-03T23:46:25;23.33;;;6.40;;
78589;SDS011;67888;50.228;7.828;2023-04-03T23:51:26;16.37;;;4.23;;
78589;SDS011;67888;50.228;7.828;2023-04-03T23:56:26;16.85;;;4.50;;
